Time;durP1;ratioP1;P1;durP2;ratioP2;P2;SDS_P1;SDS_P2;PMS_P1;PMS_P2;Temp;Humidity;BMP_temperature;BMP_pressure;BME280_temperature;BME280_humidity;BME280_pressure;Samples;Min_cycle;Max_cycle;Signal;HPM_P1;HPM_P2
2021/12/06 00:02:08;;;;;;;43.28;24.63;;;;;;;1.93;98.10;100128.94;1752561;79;21897;-82
2021/12/06 00:05:14;;;;;;;47.75;23.98;;;;;;;1.89;98.28;100122.57;1754495;79;21320;-82
2021/12/06 00:08:19;;;;;;;50.78;28.38;;;;;;;1.85;98.50;100121.95;1773000;79;21331;-82
2021/12/06 00:11:25;;;;;;;44.18;25.95;;;;;;;1.82;98.76;100118.15;1761644;79;21366;-82
2021/12/06 00:14:34;;;;;;;48.40;25.08;;;;;;;1.87;99.27;100123.17;1767777;79;21451;-82
2021/12/06 00:17:40;;;;;;;52.33;32.85;;;;;;;1.88;99.19;100124.38;1767663;79;21207;-82
2021/12/06 00:20:44;;;;;;;65.20;37.70;;;;;;;1.79;99.11;100121.97;1779442;80;21325;-82
2021/12/06 00:23:50;;;;;;;50.73;34.30;;;;;;;1.74;99.27;100120.60;1771445;80;21326;-82
2021/12/06 00:26:55;;;;;;;86.90;62.90;;;;;;;1.73;99.62;100113.01;1773419;80;21853;-82
2021/12/06 00:30:01;;;;;;;72.47;54.53;;;;;;;1.69;99.66;100112.89;1767541;80;21314;-82
2021/12/06 00:33:07;;;;;;;81.00;52.55;;;;;;;1.65;99.84;100111.94;1772933;80;21413;-82
2021/12/06 00:36:17;;;;;;;67.62;49.25;;;;;;;1.63;100.00;100116.09;1766193;80;21314;-82
2021/12/06 00:39:19;;;;;;;94.22;71.22;;;;;;;1.66;100.00;100116.34;1771428;80;22556;-82
2021/12/06 00:42:25;;;;;;;47.53;30.43;;;;;;;1.68;100.00;100115.72;1770993;80;21916;-82
2021/12/06 00:45:30;;;;;;;42.88;24.85;;;;;;;1.65;100.00;100111.45;1769204;80;21396;-82
2021/12/06 00:48:37;;;;;;;50.95;29.02;;;;;;;1.63;100.00;100116.09;1788269;78;21306;-82
2021/12/06 00:51:42;;;;;;;48.75;25.08;;;;;;;1.64;100.00;100115.59;1806091;78;21900;-82
2021/12/06 00:54:49;;;;;;;45.45;27.48;;;;;;;1.65;100.00;100114.64;1807214;79;21370;-82
2021/12/06 00:57:55;;;;;;;38.67;23.25;;;;;;;1.66;100.00;100109.11;1810835;79;21205;-82
2021/12/06 01:01:02;;;;;;;42.00;23.92;;;;;;;1.66;100.00;100117.20;1806945;78;21635;-82
2021/12/06 01:04:07;;;;;;;51.88;28.02;;;;;;;1.68;100.00;100108.48;1779797;79;21893;-82
2021/12/06 01:07:13;;;;;;;81.30;37.90;;;;;;;1.65;100.00;100105.20;1770725;80;21243;-82
2021/12/06 01:10:20;;;;;;;67.90;37.53;;;;;;;1.63;100.00;100099.06;1771273;80;21821;-82
2021/12/06 01:13:27;;;;;;;60.63;34.50;;;;;;;1.63;100.00;100097.22;1770159;81;21203;-82
2021/12/06 01:16:33;;;;;;;78.37;48.73;;;;;;;1.63;100.00;100099.91;1769767;80;21230;-82
2021/12/06 01:19:39;;;;;;;57.70;33.13;;;;;;;1.68;100.00;100099.05;1770018;80;21317;-82
2021/12/06 01:22:52;;;;;;;62.20;37.85;;;;;;;1.74;100.00;100093.17;1770903;80;21314;-82
2021/12/06 01:33:03;;;;;;;50.92;32.78;;;;;;;1.84;100.00;100097.81;1770469;80;21334;-82
2021/12/06 01:39:13;;;;;;;50.50;28.87;;;;;;;1.77;99.53;100100.14;1769965;80;21234;-82
2021/12/06 01:42:19;;;;;;;60.50;34.88;;;;;;;1.75;99.47;100102.12;1766626;80;21438;-83
2021/12/06 01:45:26;;;;;;;54.60;31.30;;;;;;;1.73;99.51;100095.48;1767015;80;21278;-82
2021/12/06 01:48:33;;;;;;;58.95;32.73;;;;;;;1.68;99.42;100096.34;1770901;80;21361;-82
2021/12/06 01:51:41;;;;;;;54.33;32.25;;;;;;;1.68;99.61;100089.61;1768665;80;21813;-83
2021/12/06 01:54:47;;;;;;;63.55;37.38;;;;;;;1.69;99.52;100097.20;1770872;80;21330;-82
2021/12/06 01:57:53;;;;;;;74.45;37.73;;;;;;;1.65;99.41;100094.42;1776230;80;21770;-82
2021/12/06 02:00:59;;;;;;;79.67;42.98;;;;;;;1.62;99.34;100088.77;1771914;80;21279;-82
2021/12/06 02:04:06;;;;;;;85.05;46.37;;;;;;;1.54;99.34;100088.03;1759827;80;21308;-82
2021/12/06 02:07:15;;;;;;;73.40;33.20;;;;;;;1.48;99.39;100088.53;1767207;80;21287;-81
2021/12/06 02:10:21;;;;;;;68.73;40.40;;;;;;;1.37;99.49;100089.05;1748313;81;21358;-82
2021/12/06 02:13:40;;;;;;;69.27;34.05;;;;;;;1.31;99.78;100084.13;1772943;80;21334;-82
2021/12/06 02:16:56;;;;;;;53.45;31.85;;;;;;;1.27;100.00;100083.05;1760006;80;21282;-82
2021/12/06 02:19:51;;;;;;;;;;;;;;;1.24;100.00;100089.16;1761262;80;21192;-82
2021/12/06 02:22:56;;;;;;;47.93;28.47;;;;;;;1.21;100.00;100092.94;1760688;80;20278;-82
2021/12/06 02:26:01;;;;;;;42.38;25.37;;;;;;;1.16;100.00;100092.94;1770772;80;21317;-83
2021/12/06 02:29:07;;;;;;;54.03;38.33;;;;;;;1.11;100.00;100085.72;1765140;80;21664;-82
2021/12/06 02:32:14;;;;;;;50.70;30.15;;;;;;;1.05;100.00;100082.17;1756027;80;21252;-82
2021/12/06 02:35:22;;;;;;;43.50;25.68;;;;;;;1.05;100.00;100091.11;1772164;80;21347;-82
2021/12/06 02:38:28;;;;;;;40.20;26.93;;;;;;;0.99;100.00;100098.33;1770100;80;21831;-82
2021/12/06 02:41:33;;;;;;;37.75;25.62;;;;;;;0.90;100.00;100098.56;1734176;82;21236;-83
2021/12/06 02:44:39;;;;;;;43.33;30.02;;;;;;;0.85;100.00;100106.60;1711551;83;21352;-82
2021/12/06 02:47:52;;;;;;;43.38;29.60;;;;;;;0.88;100.00;100110.41;1715499;81;21247;-82
2021/12/06 02:50:59;;;;;;;40.92;25.92;;;;;;;0.95;100.00;100111.17;1740566;82;21870;-82
2021/12/06 02:54:05;;;;;;;35.03;20.92;;;;;;;0.99;100.00;100121.23;1767586;80;21298;-82
2021/12/06 03:00:18;;;;;;;31.60;19.90;;;;;;;0.96;100.00;100121.45;1769232;80;21327;-82
2021/12/06 03:03:24;;;;;;;34.08;22.13;;;;;;;0.94;100.00;100122.94;1720321;82;21332;-82
2021/12/06 03:06:31;;;;;;;40.78;25.92;;;;;;;0.93;100.00;100127.92;1709353;82;21186;-81
2021/12/06 03:09:38;;;;;;;64.53;50.67;;;;;;;0.92;100.00;100122.17;1773517;80;21314;-83
2021/12/06 03:12:44;;;;;;;39.10;27.62;;;;;;;0.96;100.00;100134.43;1776242;80;21317;-82
2021/12/06 03:15:50;;;;;;;44.33;29.77;;;;;;;0.99;100.00;100132.00;1768239;80;21287;-82
2021/12/06 03:18:57;;;;;;;34.88;23.85;;;;;;;1.00;100.00;100126.48;1770256;79;21351;-82
2021/12/06 03:22:02;;;;;;;38.00;26.55;;;;;;;1.01;100.00;100125.50;1783696;79;21842;-82
2021/12/06 03:25:16;;;;;;;35.60;25.08;;;;;;;1.00;100.00;100132.36;1774482;79;21314;-82
2021/12/06 03:28:22;;;;;;;33.33;21.93;;;;;;;1.01;100.00;100133.58;1772495;80;21239;-82
2021/12/06 03:31:27;;;;;;;41.65;30.35;;;;;;;0.99;100.00;100132.86;1775786;80;21334;-82
2021/12/06 03:34:35;;;;;;;39.05;24.60;;;;;;;0.96;100.00;100127.70;1770964;79;21313;-82
2021/12/06 03:37:41;;;;;;;43.80;30.68;;;;;;;0.93;100.00;100134.66;1770720;81;21346;-82
2021/12/06 03:40:47;;;;;;;50.63;41.37;;;;;;;0.91;100.00;100133.08;1770891;80;21322;-82
2021/12/06 03:43:54;;;;;;;41.42;31.40;;;;;;;0.90;100.00;100132.22;1768402;80;21778;-82
2021/12/06 03:47:06;;;;;;;46.20;36.20;;;;;;;0.93;100.00;100133.31;1770271;80;21203;-82
2021/12/06 03:50:12;;;;;;;45.85;34.53;;;;;;;0.99;100.00;100138.73;1771760;80;21342;-82
2021/12/06 03:53:19;;;;;;;78.50;66.07;;;;;;;1.06;100.00;100141.30;1773454;80;21319;-82
2021/12/06 03:56:26;;;;;;;38.23;28.47;;;;;;;1.15;100.00;100143.28;1771940;80;21227;-82
2021/12/06 03:59:31;;;;;;;59.83;44.03;;;;;;;1.20;100.00;100134.34;1772087;80;21328;-82
2021/12/06 04:02:37;;;;;;;80.42;69.85;;;;;;;1.27;100.00;100136.05;1771236;80;22571;-82
2021/12/06 04:05:44;;;;;;;79.82;70.47;;;;;;;1.28;100.00;100127.87;1771598;80;21307;-82
2021/12/06 04:08:50;;;;;;;42.08;31.35;;;;;;;1.29;100.00;100124.68;1771363;80;21327;-82
2021/12/06 04:11:56;;;;;;;61.10;52.00;;;;;;;1.32;100.00;100124.91;1775117;80;21274;-82
2021/12/06 04:15:02;;;;;;;54.53;44.58;;;;;;;1.32;100.00;100120.86;1788602;79;21202;-81
2021/12/06 04:18:08;;;;;;;64.58;52.33;;;;;;;1.24;100.00;100118.30;1786343;79;21184;-82
2021/12/06 04:21:14;;;;;;;39.73;30.12;;;;;;;1.21;100.00;100118.53;1788253;79;21180;-82
2021/12/06 04:24:20;;;;;;;55.90;44.42;;;;;;;1.20;100.00;100118.17;1775290;79;21170;-82
2021/12/06 04:27:26;;;;;;;54.65;41.08;;;;;;;1.21;100.00;100122.58;1772180;79;21708;-82
2021/12/06 04:30:32;;;;;;;32.88;23.30;;;;;;;1.20;100.00;100124.91;1773173;79;21835;-82
2021/12/06 04:33:39;;;;;;;51.10;42.13;;;;;;;1.16;100.00;100122.09;1765292;80;21912;-82
2021/12/06 04:36:46;;;;;;;43.73;35.65;;;;;;;1.14;100.00;100127.24;1764752;80;21197;-82
2021/12/06 04:39:53;;;;;;;45.85;36.60;;;;;;;1.11;100.00;100126.13;1761757;80;21434;-82
2021/12/06 04:42:59;;;;;;;51.05;42.30;;;;;;;1.10;100.00;100129.31;1770498;81;21177;-82
2021/12/06 04:46:05;;;;;;;44.13;36.13;;;;;;;1.10;100.00;100132.01;1772861;79;21903;-82
2021/12/06 04:49:12;;;;;;;39.25;30.88;;;;;;;1.10;100.00;100133.36;1773518;79;21323;-82
2021/12/06 04:52:19;;;;;;;39.27;28.77;;;;;;;1.17;100.00;100139.11;1774768;80;21311;-82
2021/12/06 04:55:41;;;;;;;33.08;21.97;;;;;;;1.18;100.00;100130.07;1790062;79;21362;-81
2021/12/06 04:58:58;;;;;;;34.33;23.40;;;;;;;1.11;100.00;100135.06;1772387;80;21798;-82
2021/12/06 05:02:05;;;;;;;42.20;31.23;;;;;;;1.05;100.00;100141.44;1776350;79;21344;-82
2021/12/06 05:05:24;;;;;;;40.52;27.25;;;;;;;0.97;100.00;100129.41;1759838;80;21291;-82
2021/12/06 05:08:37;;;;;;;35.38;27.07;;;;;;;0.92;100.00;100127.56;1766194;79;21188;-82
2021/12/06 05:11:42;;;;;;;34.63;22.95;;;;;;;0.88;100.00;100125.22;1764061;80;21310;-82
2021/12/06 05:14:48;;;;;;;36.03;22.45;;;;;;;0.86;100.00;100131.23;1769344;79;21794;-82
2021/12/06 05:17:55;;;;;;;39.58;29.35;;;;;;;0.82;100.00;100134.64;1792831;79;21307;-82
2021/12/06 05:21:01;;;;;;;34.03;23.25;;;;;;;0.81;100.00;100141.50;1796647;80;21256;-82
2021/12/06 05:24:07;;;;;;;38.73;25.23;;;;;;;0.79;100.00;100131.32;1791471;79;21173;-82
2021/12/06 05:27:12;;;;;;;33.10;22.82;;;;;;;0.76;100.00;100129.25;1759069;80;21331;-82
2021/12/06 05:30:22;;;;;;;40.95;26.57;;;;;;;0.79;100.00;100142.95;1786495;79;21276;-82
2021/12/06 05:33:31;;;;;;;45.67;29.17;;;;;;;0.82;100.00;100144.06;1788476;79;21337;-82
2021/12/06 05:36:39;;;;;;;53.87;31.37;;;;;;;0.87;100.00;100140.53;1787292;79;21734;-82
2021/12/06 05:39:46;;;;;;;56.37;31.50;;;;;;;0.90;100.00;100133.57;1790838;78;21353;-82
2021/12/06 05:42:52;;;;;;;50.15;32.15;;;;;;;0.91;100.00;100127.20;1778823;79;21556;-82
2021/12/06 05:45:57;;;;;;;49.38;32.20;;;;;;;0.91;100.00;100129.89;1780464;79;21752;-82
2021/12/06 05:49:03;;;;;;;46.25;29.90;;;;;;;0.94;100.00;100133.70;1782733;79;21866;-83
2021/12/06 05:52:12;;;;;;;45.20;28.52;;;;;;;0.96;100.00;100128.19;1788346;78;21217;-83
2021/12/06 05:55:23;;;;;;;41.45;28.00;;;;;;;0.96;100.00;100133.58;1703968;81;21365;-83
2021/12/06 05:58:32;;;;;;;36.53;22.25;;;;;;;0.95;100.00;100127.83;1712426;82;21229;-82
2021/12/06 06:01:37;;;;;;;40.15;24.60;;;;;;;0.93;100.00;100129.77;1719995;80;21334;-82
2021/12/06 06:04:46;;;;;;;38.83;27.73;;;;;;;0.91;100.00;100129.03;1731099;80;21228;-82
2021/12/06 06:07:50;;;;;;;38.95;26.20;;;;;;;0.92;100.00;100127.56;1708743;82;21321;-83
2021/12/06 06:10:53;;;;;;;41.15;26.20;;;;;;;0.95;100.00;100140.80;1723419;82;22395;-83
2021/12/06 06:13:59;;;;;;;42.50;27.87;;;;;;;0.96;100.00;100145.70;1719893;82;21362;-84
2021/12/06 06:17:12;;;;;;;40.17;26.35;;;;;;;1.01;100.00;100149.73;1716191;81;21308;-84
2021/12/06 06:20:31;;;;;;;46.92;30.97;;;;;;;1.08;100.00;100145.21;1785189;79;21310;-88
2021/12/06 06:23:40;;;;;;;50.98;30.70;;;;;;;1.11;100.00;100155.76;1778332;78;21217;-83
2021/12/06 06:26:49;;;;;;;40.78;28.77;;;;;;;1.14;100.00;100147.45;1781639;77;21227;-83
2021/12/06 06:30:10;;;;;;;41.25;28.27;;;;;;;1.19;100.00;100138.02;1778519;79;21358;-84
2021/12/06 06:33:38;;;;;;;39.48;26.80;;;;;;;1.30;100.00;100141.70;1831782;76;22284;-86
2021/12/06 06:36:50;;;;;;;38.48;25.05;;;;;;;1.26;100.00;100145.97;1762237;77;21269;-84
2021/12/06 06:39:59;;;;;;;37.23;25.17;;;;;;;1.28;100.00;100150.77;1773233;78;21311;-85
2021/12/06 06:43:06;;;;;;;41.08;25.45;;;;;;;1.32;100.00;100162.64;1765872;78;21364;-83
2021/12/06 06:46:23;;;;;;;46.08;28.40;;;;;;;1.35;100.00;100173.19;1767436;77;21255;-83
2021/12/06 06:49:55;;;;;;;37.75;21.48;;;;;;;1.39;100.00;100173.31;1781417;77;21341;-84
2021/12/06 06:53:18;;;;;;;37.58;22.42;;;;;;;1.44;100.00;100179.20;1776019;77;21228;-84
2021/12/06 06:56:47;;;;;;;36.83;22.02;;;;;;;1.53;99.78;100177.98;1750737;80;21223;-84
2021/12/06 07:00:05;;;;;;;43.10;22.55;;;;;;;1.59;99.27;100187.41;1781362;77;21921;-86
2021/12/06 07:03:15;;;;;;;47.70;24.40;;;;;;;1.64;98.90;100186.55;1771875;77;21207;-85
2021/12/06 07:06:24;;;;;;;43.78;21.77;;;;;;;1.66;98.48;100198.09;1806736;77;21267;-84
2021/12/06 07:09:30;;;;;;;60.40;25.10;;;;;;;1.70;98.28;100195.52;1735605;80;21255;-86
2021/12/06 07:12:45;;;;;;;54.50;25.82;;;;;;;1.76;98.25;100209.00;1807635;77;21216;-85
2021/12/06 07:15:55;;;;;;;78.85;28.77;;;;;;;1.83;98.16;100217.45;1744005;80;21582;-84
2021/12/06 07:19:05;;;;;;;68.12;34.98;;;;;;;1.91;98.22;100215.00;1728871;78;21156;-83
2021/12/06 07:22:21;;;;;;;76.77;35.20;;;;;;;1.96;97.78;100219.04;1784786;78;21258;-83
2021/12/06 07:25:46;;;;;;;74.05;35.33;;;;;;;2.02;97.60;100214.98;1777718;78;21192;-84
2021/12/06 07:29:32;;;;;;;;;;;;;;;;;;;;;
2021/12/06 07:33:20;;;;;;;106.65;44.85;;;;;;;2.07;96.76;100219.55;1778788;78;21099;-82
2021/12/06 07:37:26;;;;;;;91.47;40.63;;;;;;;2.09;96.57;100216.71;1626528;82;21390;-85
2021/12/06 07:40:45;;;;;;;92.95;46.13;;;;;;;2.02;96.51;100215.87;1698581;82;21332;-85
2021/12/06 07:44:19;;;;;;;97.62;41.77;;;;;;;2.07;96.82;100215.95;1754083;79;21221;-81
2021/12/06 07:47:59;;;;;;;87.00;42.08;;;;;;;2.20;97.12;100213.98;1747654;78;21121;-83
2021/12/06 07:51:22;;;;;;;95.45;49.03;;;;;;;2.33;96.59;100216.55;1840874;76;22210;-83
2021/12/06 07:54:41;;;;;;;72.03;34.95;;;;;;;2.33;96.25;100221.45;1817318;77;21312;-84
2021/12/06 07:58:05;;;;;;;77.65;34.67;;;;;;;2.41;96.03;100223.53;1759747;78;21315;-84
2021/12/06 08:01:22;;;;;;;83.58;39.63;;;;;;;2.53;95.64;100220.66;1726537;80;21184;-83
2021/12/06 08:04:30;;;;;;;87.33;39.73;;;;;;;2.56;94.78;100211.45;1760284;80;21211;-84
2021/12/06 08:07:35;;;;;;;86.55;43.68;;;;;;;2.59;94.26;100217.08;1761809;80;21905;-83
2021/12/06 08:10:44;;;;;;;96.65;42.13;;;;;;;2.60;94.25;100223.72;1758740;80;21201;-84
2021/12/06 08:13:56;;;;;;;141.80;63.58;;;;;;;2.64;94.54;100214.88;1756730;80;21337;-85
2021/12/06 08:17:01;;;;;;;143.90;65.97;;;;;;;2.70;94.56;100208.45;1751999;80;21313;-85
2021/12/06 08:20:06;;;;;;;123.75;60.80;;;;;;;2.73;94.38;100205.52;1739460;81;21179;-84
2021/12/06 08:23:13;;;;;;;118.15;56.45;;;;;;;2.77;93.92;100201.54;1740399;81;21726;-84
2021/12/06 08:26:20;;;;;;;121.15;55.15;;;;;;;2.73;93.47;100186.61;1740072;81;21945;-85
2021/12/06 08:29:30;;;;;;;115.77;54.00;;;;;;;2.72;93.62;100191.62;1740739;81;22276;-84
2021/12/06 08:32:35;;;;;;;103.85;50.12;;;;;;;2.78;93.99;100205.98;1739164;80;21326;-86
2021/12/06 08:35:46;;;;;;;74.32;40.05;;;;;;;2.90;94.04;100214.03;1737613;81;22403;-83
2021/12/06 08:38:53;;;;;;;52.83;28.50;;;;;;;3.00;94.10;100213.60;1739155;81;22447;-83
2021/12/06 08:42:15;;;;;;;31.95;19.73;;;;;;;3.13;93.96;100206.67;1743372;81;21434;-83
2021/12/06 08:45:33;;;;;;;26.27;17.70;;;;;;;3.21;93.15;100202.83;1740028;81;21198;-84
2021/12/06 08:48:41;;;;;;;26.30;18.17;;;;;;;3.23;92.36;100203.53;1738608;81;21341;-83
2021/12/06 08:52:02;;;;;;;28.07;18.85;;;;;;;3.25;91.85;100191.61;1716521;81;21220;-84
2021/12/06 08:55:12;;;;;;;31.12;18.85;;;;;;;3.29;91.02;100167.39;1827827;76;22546;-82
2021/12/06 08:58:20;;;;;;;34.23;24.95;;;;;;;3.23;90.94;100171.09;1730513;80;21206;-82
2021/12/06 09:01:18;;;;;;;29.35;19.82;;;;;;;3.23;90.95;100166.55;1734367;80;21232;-82
2021/12/06 09:04:13;;;;;;;35.98;23.80;;;;;;;3.27;90.99;100164.44;1728200;80;21474;-82
2021/12/06 09:06:59;;;;;;;35.95;22.98;;;;;;;3.31;91.04;100157.28;1738232;80;22268;-83
2021/12/06 09:09:56;;;;;;;36.90;26.27;;;;;;;3.33;90.65;100147.67;1737151;80;22307;-83
2021/12/06 09:13:02;;;;;;;35.38;24.35;;;;;;;3.35;90.75;100147.56;1718364;80;21219;-83
2021/12/06 09:16:15;;;;;;;39.95;25.27;;;;;;;3.33;90.52;100143.13;1747817;79;21680;-82
2021/12/06 09:19:21;;;;;;;31.05;21.93;;;;;;;3.32;91.04;100141.41;1746739;79;21306;-82
2021/12/06 09:22:26;;;;;;;32.38;21.15;;;;;;;3.32;91.16;100144.12;1746539;79;21207;-82
2021/12/06 09:25:33;;;;;;;33.75;23.05;;;;;;;3.32;90.85;100134.66;1748164;79;21636;-84
2021/12/06 09:28:45;;;;;;;36.03;23.77;;;;;;;3.32;90.66;100131.95;1729487;80;21187;-84
2021/12/06 09:32:06;;;;;;;37.78;23.77;;;;;;;3.32;91.22;100133.80;1738415;80;21220;-85
2021/12/06 09:35:27;;;;;;;45.45;27.58;;;;;;;3.35;91.58;100129.98;1734785;81;21537;-85
2021/12/06 09:38:39;;;;;;;44.53;28.73;;;;;;;3.42;91.98;100131.15;1734739;80;21506;-83
2021/12/06 09:41:57;;;;;;;46.92;27.93;;;;;;;3.48;91.75;100124.72;1735993;80;21303;-83
2021/12/06 09:45:14;;;;;;;55.45;31.40;;;;;;;3.54;91.61;100127.38;1738023;81;21315;-83
2021/12/06 09:48:40;;;;;;;51.65;29.92;;;;;;;3.61;91.44;100127.67;1748901;80;21330;-84
2021/12/06 09:51:34;;;;;;;52.75;30.15;;;;;;;3.69;91.48;100121.95;1734346;80;21340;-82
2021/12/06 09:54:43;;;;;;;87.45;45.43;;;;;;;3.73;91.22;100122.04;1729252;81;22148;-82
2021/12/06 09:57:49;;;;;;;107.90;54.03;;;;;;;3.78;91.61;100118.42;1736321;81;21304;-82
2021/12/06 10:01:02;;;;;;;148.72;64.75;;;;;;;3.82;91.44;100121.72;1737391;81;21307;-82
2021/12/06 10:04:10;;;;;;;154.53;63.15;;;;;;;3.84;91.53;100105.69;1732474;81;21335;-83
2021/12/06 10:07:18;;;;;;;161.07;67.92;;;;;;;3.83;91.77;100110.74;1738595;81;21315;-83
2021/12/06 10:10:34;;;;;;;148.13;60.58;;;;;;;3.90;91.97;100112.89;1711042;82;21235;-85
2021/12/06 10:13:46;;;;;;;132.55;54.88;;;;;;;3.93;92.07;100092.33;1731117;81;21828;-81
2021/12/06 10:16:51;;;;;;;128.05;65.70;;;;;;;3.98;92.10;100102.23;1772755;78;21799;-80
2021/12/06 10:19:55;;;;;;;132.05;60.35;;;;;;;4.07;92.35;100106.81;1759782;78;21179;-84
2021/12/06 10:23:00;;;;;;;128.55;52.95;;;;;;;4.16;92.03;100115.45;1773574;78;21181;-83
2021/12/06 10:26:05;;;;;;;143.35;50.92;;;;;;;4.26;92.02;100109.55;1774539;78;21298;-81
2021/12/06 10:29:22;;;;;;;186.05;75.83;;;;;;;4.36;92.15;100105.48;1770785;78;21770;-82
2021/12/06 10:32:31;;;;;;;143.37;55.17;;;;;;;4.39;91.49;100103.02;1776129;78;21958;-83
2021/12/06 10:35:36;;;;;;;120.77;51.53;;;;;;;4.36;91.58;100109.55;1773044;78;21212;-83
2021/12/06 10:38:52;;;;;;;120.60;52.25;;;;;;;4.40;92.09;100110.98;1774289;78;21742;-84
2021/12/06 10:42:00;;;;;;;122.60;50.65;;;;;;;4.46;92.45;100112.27;1775507;78;21483;-81
2021/12/06 10:45:15;;;;;;;107.10;47.62;;;;;;;4.48;92.44;100122.48;1774267;78;21322;-82
2021/12/06 10:49:02;;;;;;;115.92;47.00;;;;;;;4.44;92.41;100112.42;1772591;78;21469;-84
2021/12/06 10:52:10;;;;;;;109.57;43.40;;;;;;;4.43;92.89;100104.45;1771734;78;22109;-82
2021/12/06 10:55:18;;;;;;;120.15;56.92;;;;;;;4.46;93.81;100102.28;1775946;78;21852;-82
2021/12/06 10:58:27;;;;;;;125.15;62.00;;;;;;;4.51;94.41;100099.15;1766312;78;22232;-83
2021/12/06 11:01:40;;;;;;;111.10;43.30;;;;;;;4.55;94.61;100102.78;1775875;78;21346;-85
2021/12/06 11:04:51;;;;;;;110.85;49.35;;;;;;;4.63;95.05;100098.02;1783060;78;21178;-84
2021/12/06 11:08:20;;;;;;;97.25;44.23;;;;;;;4.71;95.32;100095.95;1780933;78;21296;-84
2021/12/06 11:11:31;;;;;;;86.20;37.10;;;;;;;4.78;95.63;100094.37;1773861;78;21253;-81
2021/12/06 11:14:44;;;;;;;46.35;25.52;;;;;;;4.90;95.75;100092.37;1776284;78;21276;-83
2021/12/06 11:17:53;;;;;;;50.40;26.73;;;;;;;5.01;96.25;100098.47;1774405;78;21263;-84
2021/12/06 11:21:04;;;;;;;48.08;26.05;;;;;;;5.11;96.39;100091.66;1763310;78;21291;-83
2021/12/06 11:24:38;;;;;;;28.95;17.35;;;;;;;5.20;96.51;100098.06;1777468;78;21845;-83
2021/12/06 11:27:48;;;;;;;24.82;16.07;;;;;;;5.26;96.60;100090.19;1779338;78;21381;-82
2021/12/06 11:31:09;;;;;;;26.25;17.45;;;;;;;5.28;96.60;100092.27;1774474;78;21853;-81
2021/12/06 11:34:15;;;;;;;35.17;20.72;;;;;;;5.32;96.68;100089.62;1775469;78;21479;-82
2021/12/06 11:37:29;;;;;;;37.63;21.10;;;;;;;5.30;96.47;100088.89;1773227;78;21185;-81
2021/12/06 11:40:40;;;;;;;26.60;18.35;;;;;;;5.23;96.88;100089.65;1780423;78;21300;-82
2021/12/06 11:43:44;;;;;;;36.23;20.17;;;;;;;5.16;97.43;100089.36;1782350;78;21291;-81
2021/12/06 11:46:53;;;;;;;43.13;23.50;;;;;;;5.11;97.96;100079.47;1778005;78;21189;-83
2021/12/06 11:50:02;;;;;;;42.35;23.85;;;;;;;5.05;98.87;100078.70;1765059;78;21180;-83
2021/12/06 11:53:14;;;;;;;45.33;26.25;;;;;;;4.97;99.97;100069.94;1774364;78;21331;-83
2021/12/06 11:56:44;;;;;;;60.05;30.60;;;;;;;4.92;100.00;100055.97;1776112;77;21489;-82
2021/12/06 12:00:00;;;;;;;83.37;36.53;;;;;;;4.94;100.00;100053.10;1763759;78;21256;-81
2021/12/06 12:03:12;;;;;;;82.12;40.50;;;;;;;4.94;100.00;100054.45;1769012;78;21618;-82
2021/12/06 12:06:38;;;;;;;82.25;36.98;;;;;;;4.94;100.00;100057.17;1697517;81;21500;-82
2021/12/06 12:09:47;;;;;;;76.95;33.85;;;;;;;4.95;100.00;100062.97;1754466;78;21171;-82
2021/12/06 12:13:01;;;;;;;73.42;34.40;;;;;;;4.97;100.00;100077.22;1773162;78;21681;-82
2021/12/06 12:16:14;;;;;;;99.28;42.75;;;;;;;5.02;100.00;100077.63;1772956;78;21209;-83
2021/12/06 12:19:23;;;;;;;;;;;;;;;5.05;100.00;100075.99;1777019;78;21853;-83
2021/12/06 12:22:27;;;;;;;104.38;45.92;;;;;;;5.09;100.00;100062.50;1775458;78;20402;-83
2021/12/06 12:25:37;;;;;;;100.90;41.88;;;;;;;5.08;100.00;100071.61;1780344;78;21626;-82
2021/12/06 12:28:51;;;;;;;92.57;42.58;;;;;;;5.05;100.00;100067.36;1776017;78;21275;-81
2021/12/06 12:31:55;;;;;;;110.78;50.48;;;;;;;5.08;100.00;100063.48;1776310;78;21729;-80
2021/12/06 12:35:00;;;;;;;119.85;51.45;;;;;;;5.08;100.00;100068.43;1684561;82;21269;-80
2021/12/06 12:38:06;;;;;;;125.58;51.55;;;;;;;5.10;100.00;100073.19;1779117;78;21649;-80
2021/12/06 12:41:17;;;;;;;120.50;49.35;;;;;;;5.10;100.00;100071.83;1775125;78;21260;-81
2021/12/06 12:44:24;;;;;;;92.75;42.48;;;;;;;5.12;100.00;100065.75;1777587;78;21295;-80
2021/12/06 12:47:36;;;;;;;102.00;40.35;;;;;;;5.08;100.00;100064.36;1776052;78;21315;-82
2021/12/06 12:50:47;;;;;;;90.15;36.68;;;;;;;5.06;100.00;100047.88;1767248;78;22170;-82
2021/12/06 12:54:03;;;;;;;80.40;33.28;;;;;;;5.06;100.00;100050.59;1777214;78;21315;-83
2021/12/06 12:57:14;;;;;;;79.92;31.17;;;;;;;5.03;100.00;100047.66;1778111;77;21907;-82
2021/12/06 13:00:31;;;;;;;75.20;31.97;;;;;;;5.01;100.00;100037.98;1792304;77;21161;-82
2021/12/06 13:04:01;;;;;;;64.75;30.37;;;;;;;5.02;100.00;100031.05;1736948;80;21183;-82
2021/12/06 13:07:21;;;;;;;67.70;30.45;;;;;;;5.02;100.00;100029.69;1732205;81;21214;-84
2021/12/06 13:10:42;;;;;;;74.10;32.73;;;;;;;5.03;100.00;100050.87;1730247;81;21158;-84
2021/12/06 13:13:55;;;;;;;71.70;32.65;;;;;;;4.98;100.00;100047.75;1745105;81;21238;-82
2021/12/06 13:17:05;;;;;;;63.25;29.92;;;;;;;4.90;100.00;100040.87;1743044;81;21259;-82
2021/12/06 13:20:07;;;;;;;54.13;29.27;;;;;;;4.86;100.00;100047.93;1746040;81;21873;-84
2021/12/06 13:22:50;;;;;;;46.88;26.77;;;;;;;4.84;100.00;100051.77;1727935;82;21291;-83
2021/12/06 13:25:43;;;;;;;56.30;28.60;;;;;;;4.82;100.00;100052.43;1732319;81;21201;-83
2021/12/06 13:28:28;;;;;;;55.55;25.70;;;;;;;4.79;100.00;100049.50;1733500;81;21346;-83
2021/12/06 13:31:32;;;;;;;62.70;28.20;;;;;;;4.76;100.00;100052.52;1729883;81;21327;-83
2021/12/06 13:34:37;;;;;;;52.60;28.95;;;;;;;4.75;100.00;100056.23;1732825;82;21184;-84
2021/12/06 13:37:42;;;;;;;49.80;27.77;;;;;;;4.76;100.00;100060.65;1729068;81;21804;-84
2021/12/06 13:41:10;;;;;;;61.00;33.18;;;;;;;4.75;100.00;100054.00;1695221;82;21286;-83
2021/12/06 13:44:21;;;;;;;52.70;28.87;;;;;;;4.75;100.00;100061.66;1730910;81;21846;-84
2021/12/06 13:47:31;;;;;;;55.78;26.25;;;;;;;4.75;100.00;100057.59;1743507;80;21176;-84
2021/12/06 13:50:30;;;;;;;57.80;27.50;;;;;;;4.77;100.00;100061.00;1732409;81;21292;-83
2021/12/06 13:53:38;;;;;;;53.15;27.85;;;;;;;4.78;100.00;100060.49;1734476;81;21851;-85
2021/12/06 13:56:52;;;;;;;50.67;26.10;;;;;;;4.79;100.00;100072.53;1733876;81;21180;-84
2021/12/06 14:00:01;;;;;;;51.42;27.30;;;;;;;4.79;100.00;100071.17;1732079;82;21817;-84
2021/12/06 14:03:12;;;;;;;54.00;28.12;;;;;;;4.78;100.00;100069.47;1733861;82;21825;-83
2021/12/06 14:06:21;;;;;;;60.85;29.32;;;;;;;4.77;100.00;100078.61;1733938;82;21188;-84
2021/12/06 14:09:25;;;;;;;64.95;30.00;;;;;;;4.76;100.00;100071.48;1739928;81;21296;-82
2021/12/06 14:12:37;;;;;;;63.33;30.12;;;;;;;4.76;100.00;100071.99;1736722;82;21770;-83
2021/12/06 14:18:47;;;;;;;56.98;30.48;;;;;;;4.74;100.00;100076.68;1732759;81;21198;-83
2021/12/06 14:21:48;;;;;;;62.50;32.73;;;;;;;4.75;100.00;100072.97;1736023;81;21660;-82
2021/12/06 14:24:54;;;;;;;63.55;32.85;;;;;;;4.75;100.00;100073.84;1731005;82;21214;-84
2021/12/06 14:28:01;;;;;;;63.33;32.53;;;;;;;4.76;100.00;100076.05;1712936;84;21356;-84
2021/12/06 14:31:08;;;;;;;57.95;29.57;;;;;;;4.77;100.00;100066.92;1725125;82;21171;-84
2021/12/06 14:34:13;;;;;;;52.62;27.40;;;;;;;4.79;100.00;100051.36;1721809;83;21309;-84
2021/12/06 14:37:22;;;;;;;68.17;32.33;;;;;;;4.83;100.00;100057.70;1722071;83;21247;-84
2021/12/06 14:40:27;;;;;;;57.83;28.42;;;;;;;4.88;100.00;100044.56;1756592;81;21774;-84
2021/12/06 14:43:33;;;;;;;65.55;28.87;;;;;;;4.93;100.00;100045.98;1757824;81;21272;-83
2021/12/06 14:46:37;;;;;;;56.33;29.40;;;;;;;4.98;100.00;100037.75;1757700;81;21177;-83